createdAt,value
2023-04-27T00:00:14.026Z,234.11
2023-04-27T00:01:14.074Z,232.73
2023-04-27T00:02:14.217Z,232.18
2023-04-27T00:03:14.331Z,232.61
2023-04-27T00:04:14.502Z,233.90
2023-04-27T00:05:14.562Z,233.16
2023-04-27T00:06:14.348Z,233.83
2023-04-27T00:07:14.340Z,232.57
2023-04-27T00:08:14.367Z,231.88
2023-04-27T00:09:14.580Z,233.50
2023-04-27T00:10:14.480Z,231.89
2023-04-27T00:11:14.523Z,231.06
2023-04-27T00:12:14.578Z,231.32
2023-04-27T00:13:14.625Z,232.73
2023-04-27T00:14:14.637Z,231.84
2023-04-27T00:15:14.684Z,231.23
2023-04-27T00:16:14.763Z,231.75
2023-04-27T00:17:14.767Z,232.29
2023-04-27T00:18:14.816Z,231.86
2023-04-27T00:19:15.276Z,231.76
2023-04-27T00:20:14.953Z,230.40
2023-04-27T00:21:15.017Z,232.57
2023-04-27T00:22:15.091Z,230.78
2023-04-27T00:23:15.145Z,233.93
2023-04-27T00:24:15.200Z,232.82
2023-04-27T00:25:15.293Z,231.17
2023-04-27T00:26:15.316Z,231.52
2023-04-27T00:27:15.409Z,230.69
2023-04-27T00:28:15.459Z,231.11
2023-04-27T00:29:15.681Z,230.76
2023-04-27T00:30:15.569Z,230.81
2023-04-27T00:31:15.694Z,232.38
2023-04-27T00:32:15.776Z,230.69
2023-04-27T00:33:15.797Z,230.62
2023-04-27T00:34:15.853Z,230.79
2023-04-27T00:35:15.879Z,230.96
2023-04-27T00:36:15.953Z,231.06
2023-04-27T00:37:15.995Z,229.22
2023-04-27T00:38:16.071Z,230.63
2023-04-27T00:39:16.334Z,231.17
2023-04-27T00:40:16.245Z,230.14
2023-04-27T00:41:16.313Z,230.00
2023-04-27T00:42:16.321Z,231.06
2023-04-27T00:43:16.399Z,231.43
2023-04-27T00:44:16.454Z,230.34
2023-04-27T00:45:16.505Z,229.30
2023-04-27T00:46:16.632Z,229.62
2023-04-27T00:47:16.562Z,230.76
2023-04-27T00:48:16.645Z,230.41
2023-04-27T00:49:16.709Z,229.52
2023-04-27T00:50:16.761Z,229.53
2023-04-27T00:51:16.797Z,230.54
2023-04-27T00:52:16.872Z,230.16
2023-04-27T00:53:16.897Z,229.95
2023-04-27T00:54:16.969Z,230.01
2023-04-27T00:55:17.005Z,230.57
2023-04-27T00:56:17.049Z,229.25
2023-04-27T00:57:17.089Z,230.47
2023-04-27T00:58:17.127Z,229.92
2023-04-27T00:59:17.176Z,229.87
2023-04-27T01:00:17.213Z,229.94
2023-04-27T01:01:17.215Z,228.76
2023-04-27T01:02:17.343Z,230.31
2023-04-27T01:03:17.418Z,229.23
2023-04-27T01:04:17.446Z,229.77
2023-04-27T01:05:17.391Z,228.52
2023-04-27T01:06:17.411Z,229.78
2023-04-27T01:07:17.482Z,228.71
2023-04-27T01:08:17.489Z,229.50
2023-04-27T01:09:17.487Z,228.68
2023-04-27T01:10:17.529Z,228.46
2023-04-27T01:11:17.598Z,229.39
2023-04-27T01:12:17.591Z,229.43
2023-04-27T01:13:17.629Z,228.96
2023-04-27T01:14:17.675Z,228.87
2023-04-27T01:15:17.743Z,228.53
2023-04-27T01:16:17.755Z,228.34
2023-04-27T01:17:17.857Z,229.35
2023-04-27T01:18:17.914Z,228.71
2023-04-27T01:19:17.902Z,228.80
2023-04-27T01:20:17.960Z,228.84
2023-04-27T01:21:18.033Z,227.73
2023-04-27T01:22:18.021Z,228.07
2023-04-27T01:23:18.075Z,229.24
2023-04-27T01:24:18.128Z,228.08
2023-04-27T01:25:18.204Z,228.66
2023-04-27T01:26:18.246Z,227.21
2023-04-27T01:27:18.315Z,227.48
2023-04-27T01:28:18.359Z,227.92
2023-04-27T01:29:18.403Z,228.18
2023-04-27T01:30:18.430Z,229.04
2023-04-27T01:31:18.529Z,228.51
2023-04-27T01:32:18.473Z,227.50
2023-04-27T01:33:18.523Z,228.04
2023-04-27T01:34:18.581Z,227.90
2023-04-27T01:35:18.601Z,227.59
2023-04-27T01:36:18.629Z,227.83
2023-04-27T01:37:18.687Z,228.04
2023-04-27T01:38:18.698Z,228.60
2023-04-27T01:39:18.709Z,227.13
2023-04-27T01:40:18.767Z,228.18
2023-04-27T01:41:18.762Z,227.61
2023-04-27T01:42:18.807Z,227.50
2023-04-27T01:43:18.853Z,227.33
2023-04-27T01:44:18.865Z,228.01
2023-04-27T01:45:18.894Z,227.31
2023-04-27T01:46:18.908Z,227.17
2023-04-27T01:47:18.968Z,227.09
2023-04-27T01:48:18.970Z,227.13
2023-04-27T01:49:19.005Z,226.81
2023-04-27T01:50:19.019Z,227.16
2023-04-27T01:51:19.096Z,227.40
2023-04-27T01:52:19.114Z,227.52
2023-04-27T01:53:19.163Z,227.90
2023-04-27T01:54:19.224Z,227.62
2023-04-27T01:55:19.213Z,226.97
2023-04-27T01:56:19.253Z,227.64
2023-04-27T01:57:19.300Z,227.47
2023-04-27T01:58:19.335Z,227.19
2023-04-27T01:59:19.366Z,226.65
2023-04-27T02:00:19.363Z,227.39
2023-04-27T02:01:19.436Z,226.93
2023-04-27T02:02:19.484Z,227.02
2023-04-27T02:03:19.574Z,226.81
2023-04-27T02:04:19.688Z,226.79
2023-04-27T02:05:19.515Z,226.83
2023-04-27T02:06:19.556Z,227.80
2023-04-27T02:07:19.589Z,226.56
2023-04-27T02:08:19.610Z,226.50
2023-04-27T02:09:19.605Z,226.78
2023-04-27T02:10:19.671Z,226.59
2023-04-27T02:11:19.676Z,226.94
2023-04-27T02:12:19.776Z,226.70
2023-04-27T02:13:19.755Z,225.71
2023-04-27T02:14:19.792Z,226.88
2023-04-27T02:15:19.828Z,225.65
2023-04-27T02:16:19.851Z,226.38
2023-04-27T02:17:19.901Z,226.48
2023-04-27T02:18:19.900Z,225.58
2023-04-27T02:19:19.904Z,226.53
2023-04-27T02:20:19.983Z,225.70
2023-04-27T02:21:20.029Z,225.35
2023-04-27T02:22:20.028Z,225.77
2023-04-27T02:23:20.062Z,225.22
2023-04-27T02:24:20.107Z,226.48
2023-04-27T02:25:20.173Z,227.27
2023-04-27T02:26:20.154Z,226.52
2023-04-27T02:27:20.226Z,225.69
2023-04-27T02:28:20.232Z,226.47
2023-04-27T02:29:20.305Z,225.91
2023-04-27T02:30:20.258Z,226.14
2023-04-27T02:31:20.360Z,226.18
2023-04-27T02:32:20.308Z,225.44
2023-04-27T02:33:20.327Z,225.39
2023-04-27T02:34:20.360Z,225.99
2023-04-27T02:35:20.369Z,225.07
2023-04-27T02:36:20.396Z,226.60
2023-04-27T02:37:20.447Z,224.87
2023-04-27T02:38:20.430Z,225.37
2023-04-27T02:39:20.481Z,226.06
2023-04-27T02:40:20.537Z,225.56
2023-04-27T02:41:20.579Z,225.36
2023-04-27T02:42:20.601Z,225.45
2023-04-27T02:43:20.586Z,224.67
2023-04-27T02:44:20.582Z,224.09
2023-04-27T02:45:20.624Z,225.63
2023-04-27T02:46:20.642Z,223.50
2023-04-27T02:47:20.641Z,224.56
2023-04-27T02:48:20.641Z,224.55
2023-04-27T02:49:20.697Z,224.02
2023-04-27T02:50:20.734Z,224.53
2023-04-27T02:51:20.770Z,223.61
2023-04-27T02:52:20.798Z,225.98
2023-04-27T02:53:20.866Z,224.74
2023-04-27T02:54:20.826Z,224.60
2023-04-27T02:55:20.894Z,225.33
2023-04-27T02:56:20.937Z,224.35
2023-04-27T02:57:21.006Z,223.75
2023-04-27T02:58:21.003Z,223.65
2023-04-27T02:59:21.028Z,224.79
2023-04-27T03:00:20.995Z,224.64
2023-04-27T03:01:21.048Z,224.16
2023-04-27T03:02:21.136Z,224.86
2023-04-27T03:03:21.205Z,224.44
2023-04-27T03:04:21.255Z,223.81
2023-04-27T03:05:21.054Z,223.51
2023-04-27T03:06:21.106Z,224.93
2023-04-27T03:07:21.113Z,223.76
2023-04-27T03:08:21.146Z,223.75
2023-04-27T03:09:21.146Z,223.21
2023-04-27T03:10:21.171Z,223.29
2023-04-27T03:11:21.199Z,224.40
2023-04-27T03:12:21.216Z,222.73
2023-04-27T03:13:21.191Z,224.31
2023-04-27T03:14:21.199Z,223.38
2023-04-27T03:15:21.215Z,223.28
2023-04-27T03:16:21.251Z,224.65
2023-04-27T03:17:21.222Z,224.35
2023-04-27T03:18:21.239Z,223.49
2023-04-27T03:19:21.282Z,223.24
2023-04-27T03:20:21.321Z,224.03
2023-04-27T03:21:21.293Z,223.76
2023-04-27T03:22:21.354Z,223.65
2023-04-27T03:23:21.369Z,224.34
2023-04-27T03:24:21.362Z,223.41
2023-04-27T03:25:21.410Z,223.15
2023-04-27T03:26:21.374Z,222.90
2023-04-27T03:27:21.839Z,223.78
2023-04-27T03:28:21.416Z,222.90
2023-04-27T03:29:21.401Z,222.67
2023-04-27T03:30:21.392Z,222.59
2023-04-27T03:31:21.410Z,222.34
2023-04-27T03:32:21.415Z,222.24
2023-04-27T03:33:21.432Z,223.46
2023-04-27T03:34:21.434Z,222.05
2023-04-27T03:35:21.431Z,222.55
2023-04-27T03:36:21.442Z,221.81
2023-04-27T03:37:21.470Z,222.44
2023-04-27T03:38:21.453Z,222.43
2023-04-27T03:39:21.431Z,223.49
2023-04-27T03:40:21.430Z,223.64
2023-04-27T03:41:21.456Z,222.67
2023-04-27T03:42:21.414Z,221.48
2023-04-27T03:43:21.431Z,221.82
2023-04-27T03:44:21.465Z,222.62
2023-04-27T03:45:21.470Z,222.39
2023-04-27T03:46:21.472Z,221.85
2023-04-27T03:47:21.465Z,222.28
2023-04-27T03:48:21.476Z,221.55
2023-04-27T03:49:21.488Z,220.83
2023-04-27T03:50:21.527Z,220.43
2023-04-27T03:51:22.336Z,220.89
2023-04-27T03:52:46.019Z,25.00
2023-04-27T03:53:46.022Z,25.00
2023-04-27T03:54:46.005Z,25.00
2023-04-27T03:55:46.037Z,25.00
2023-04-27T03:56:45.998Z,25.00
2023-04-27T03:57:46.015Z,25.00
2023-04-27T03:58:46.023Z,27.31
2023-04-27T03:59:46.015Z,28.08
2023-04-27T04:00:46.018Z,27.33
2023-04-27T04:01:46.053Z,29.00
2023-04-27T04:02:46.074Z,26.68
2023-04-27T04:03:46.240Z,25.95
2023-04-27T04:04:46.260Z,28.52
2023-04-27T04:05:46.019Z,27.44
2023-04-27T04:06:46.102Z,30.03
2023-04-27T04:07:46.048Z,27.96
2023-04-27T04:08:46.042Z,26.17
2023-04-27T04:09:46.044Z,26.37
2023-04-27T04:10:46.008Z,27.42
2023-04-27T04:11:46.019Z,25.91
2023-04-27T04:12:46.059Z,28.17
2023-04-27T04:13:46.047Z,27.16
2023-04-27T04:14:46.020Z,31.42
2023-04-27T04:15:46.059Z,28.58
2023-04-27T04:16:46.045Z,25.94
2023-04-27T04:17:46.066Z,27.08
2023-04-27T04:18:46.071Z,25.91
2023-04-27T04:19:46.021Z,27.64
2023-04-27T04:20:46.061Z,28.87
2023-04-27T04:21:46.025Z,29.21
2023-04-27T04:22:46.044Z,29.86
2023-04-27T04:23:46.041Z,28.93
2023-04-27T04:24:46.047Z,28.21
2023-04-27T04:25:46.022Z,27.56
2023-04-27T04:26:46.058Z,26.69
2023-04-27T04:27:46.058Z,26.18
2023-04-27T04:28:46.017Z,29.95
2023-04-27T04:29:46.039Z,30.73
2023-04-27T04:30:46.055Z,26.38
2023-04-27T04:31:46.091Z,26.85
2023-04-27T04:32:46.117Z,27.68
2023-04-27T04:33:46.053Z,27.58
2023-04-27T04:34:46.070Z,30.15
2023-04-27T04:35:46.079Z,26.49
2023-04-27T04:36:46.071Z,27.08
2023-04-27T04:37:46.086Z,27.16
2023-04-27T04:38:46.096Z,29.02
2023-04-27T04:39:46.097Z,27.05
2023-04-27T04:40:46.238Z,25.51
2023-04-27T04:41:46.089Z,30.47
2023-04-27T04:42:46.093Z,27.47
2023-04-27T04:43:46.086Z,26.24
2023-04-27T04:44:46.093Z,25.09
2023-04-27T04:45:46.065Z,27.11
2023-04-27T04:46:46.149Z,31.00
2023-04-27T04:47:46.120Z,31.29
2023-04-27T04:48:46.131Z,32.63
2023-04-27T04:49:46.104Z,31.28
2023-04-27T04:50:46.119Z,30.40
2023-04-27T04:51:46.115Z,32.85
2023-04-27T04:52:46.134Z,33.17
2023-04-27T04:53:46.129Z,31.09
2023-04-27T04:54:46.134Z,31.46
2023-04-27T04:55:46.145Z,29.23
2023-04-27T04:56:46.127Z,32.45
2023-04-27T04:57:46.138Z,31.42
2023-04-27T04:58:46.123Z,29.45
2023-04-27T04:59:46.122Z,31.73
2023-04-27T05:00:46.148Z,32.68
2023-04-27T05:01:46.153Z,33.18
2023-04-27T05:02:46.227Z,31.45
2023-04-27T05:03:46.307Z,31.89
2023-04-27T05:04:46.334Z,31.78
2023-04-27T05:05:46.216Z,32.94
2023-04-27T05:06:46.330Z,33.03
2023-04-27T05:07:46.278Z,33.54
2023-04-27T05:08:46.306Z,32.88
2023-04-27T05:09:46.364Z,35.50
2023-04-27T05:10:46.383Z,35.22
2023-04-27T05:11:46.427Z,35.33
2023-04-27T05:12:46.483Z,34.44
2023-04-27T05:13:46.557Z,35.41
2023-04-27T05:14:46.572Z,37.09
2023-04-27T05:15:46.663Z,35.59
2023-04-27T05:16:46.666Z,35.53
2023-04-27T05:17:46.804Z,33.13
2023-04-27T05:18:46.727Z,37.67
2023-04-27T05:19:46.785Z,32.74
2023-04-27T05:20:46.838Z,35.12
2023-04-27T05:21:46.868Z,36.86
2023-04-27T05:22:46.896Z,35.97
2023-04-27T05:23:46.899Z,36.76
2023-04-27T05:24:46.959Z,33.35
2023-04-27T05:25:46.940Z,38.05
2023-04-27T05:26:46.988Z,36.85
2023-04-27T05:27:47.026Z,36.65
2023-04-27T05:28:47.085Z,38.91
2023-04-27T05:29:47.093Z,39.10
2023-04-27T05:30:47.707Z,37.84
2023-04-27T05:31:47.226Z,39.47
2023-04-27T05:32:47.305Z,38.28
2023-04-27T05:33:47.180Z,41.36
2023-04-27T05:34:49.228Z,42.94
2023-04-27T05:35:47.263Z,40.71
2023-04-27T05:36:47.353Z,43.30
2023-04-27T05:37:47.342Z,50.02
2023-04-27T05:38:47.340Z,52.25
2023-04-27T05:39:47.397Z,59.88
2023-04-27T05:40:47.469Z,58.18
2023-04-27T05:41:47.486Z,69.94
2023-04-27T05:42:47.508Z,71.67
2023-04-27T05:43:47.512Z,68.98
2023-04-27T05:44:47.566Z,78.40
2023-04-27T05:45:47.668Z,82.25
2023-04-27T05:46:47.647Z,96.69
2023-04-27T05:47:47.683Z,109.05
2023-04-27T05:48:47.646Z,122.18
2023-04-27T05:49:47.716Z,150.94
2023-04-27T05:50:47.786Z,142.93
2023-04-27T05:51:47.859Z,155.76
2023-04-27T05:52:47.935Z,161.57
2023-04-27T05:53:48.014Z,160.14
2023-04-27T05:54:48.090Z,190.70
2023-04-27T05:55:48.146Z,187.17
2023-04-27T05:56:48.195Z,239.68
2023-04-27T05:57:54.468Z,227.11
2023-04-27T05:58:49.233Z,210.42
2023-04-27T05:59:48.297Z,198.22
2023-04-27T06:00:48.244Z,189.87
2023-04-27T06:01:48.268Z,183.29
2023-04-27T06:02:48.443Z,186.01
2023-04-27T06:03:48.424Z,176.97
2023-04-27T06:04:48.319Z,175.92
2023-04-27T06:05:48.283Z,177.91
2023-04-27T06:06:48.284Z,177.79
2023-04-27T06:07:48.354Z,179.57
2023-04-27T06:08:49.227Z,178.85
2023-04-27T06:09:48.392Z,179.84
2023-04-27T06:10:48.412Z,172.80
2023-04-27T06:11:48.471Z,170.06
2023-04-27T06:12:48.491Z,168.50
2023-04-27T06:13:48.555Z,162.23
2023-04-27T06:14:48.555Z,160.49
2023-04-27T06:15:48.593Z,166.92
2023-04-27T06:16:48.576Z,165.89
2023-04-27T06:17:48.663Z,165.79
2023-04-27T06:18:48.623Z,165.24
2023-04-27T06:19:48.725Z,160.56
2023-04-27T06:20:48.817Z,156.15
2023-04-27T06:21:48.868Z,159.33
2023-04-27T06:22:48.988Z,158.76
2023-04-27T06:23:49.060Z,161.71
2023-04-27T06:24:49.133Z,164.16
2023-04-27T06:25:49.207Z,161.70
2023-04-27T06:26:49.349Z,160.71
2023-04-27T06:27:49.385Z,155.83
2023-04-27T06:28:49.501Z,153.91
2023-04-27T06:29:49.538Z,150.34
2023-04-27T06:30:49.632Z,151.65
2023-04-27T06:31:49.754Z,143.95
2023-04-27T06:32:49.769Z,135.58
2023-04-27T06:33:49.825Z,137.07
2023-04-27T06:34:49.915Z,145.92
2023-04-27T06:35:49.967Z,156.02
2023-04-27T06:36:50.084Z,167.12
2023-04-27T06:37:50.161Z,157.08
2023-04-27T06:38:50.233Z,160.41
2023-04-27T06:39:50.315Z,155.83
2023-04-27T06:40:50.402Z,161.17
2023-04-27T06:41:50.432Z,167.62
2023-04-27T06:42:50.552Z,167.24
2023-04-27T06:43:50.580Z,172.89
2023-04-27T06:44:50.695Z,170.87
2023-04-27T06:45:50.804Z,184.08
2023-04-27T06:46:50.859Z,157.33
2023-04-27T06:47:50.867Z,158.02
2023-04-27T06:48:50.910Z,139.23
2023-04-27T06:49:50.942Z,147.38
2023-04-27T06:50:51.003Z,147.79
2023-04-27T06:51:51.051Z,139.45
2023-04-27T06:52:51.137Z,142.06
2023-04-27T06:53:51.238Z,134.85
2023-04-27T06:54:51.315Z,133.73
2023-04-27T06:55:51.406Z,147.88
2023-04-27T06:56:51.498Z,162.58
2023-04-27T06:57:51.542Z,173.77
2023-04-27T06:58:51.706Z,178.26
2023-04-27T06:59:51.669Z,183.56
2023-04-27T07:00:51.730Z,186.10
2023-04-27T07:01:51.841Z,195.63
2023-04-27T07:02:51.862Z,199.82
2023-04-27T07:03:52.069Z,204.60
2023-04-27T07:04:52.023Z,209.82
2023-04-27T07:05:52.033Z,232.88
2023-04-27T07:06:52.090Z,233.04
2023-04-27T07:07:52.136Z,230.45
2023-04-27T07:08:52.202Z,236.56
2023-04-27T07:09:52.252Z,239.85
2023-04-27T07:10:52.304Z,250.00
2023-04-27T07:11:52.339Z,249.14
2023-04-27T07:12:52.425Z,247.91
2023-04-27T07:13:52.433Z,250.00
2023-04-27T07:14:54.277Z,248.65
2023-04-27T07:15:52.548Z,248.97
2023-04-27T07:16:52.585Z,250.00
2023-04-27T07:17:52.629Z,250.00
2023-04-27T07:18:52.640Z,249.75
2023-04-27T07:19:52.677Z,250.00
2023-04-27T07:20:52.733Z,248.12
2023-04-27T07:21:52.740Z,249.33
2023-04-27T07:22:52.751Z,249.48
2023-04-27T07:23:54.175Z,249.86
2023-04-27T07:24:52.790Z,249.66
2023-04-27T07:25:52.816Z,250.00
2023-04-27T07:26:52.821Z,248.27
2023-04-27T07:27:53.288Z,249.54
2023-04-27T07:28:52.891Z,249.97
2023-04-27T07:29:52.910Z,249.65
2023-04-27T07:30:52.945Z,248.67
2023-04-27T07:31:53.065Z,250.00
2023-04-27T07:32:53.009Z,248.96
2023-04-27T07:33:52.940Z,250.00
2023-04-27T07:34:54.396Z,248.90
2023-04-27T07:35:53.002Z,249.70
2023-04-27T07:36:53.024Z,249.46
2023-04-27T07:37:52.999Z,248.55
2023-04-27T07:38:53.273Z,253.00
2023-04-27T07:39:53.116Z,251.64
2023-04-27T07:40:53.040Z,248.80
2023-04-27T07:41:53.084Z,245.87
2023-04-27T07:42:53.069Z,245.74
2023-04-27T07:43:53.271Z,244.34
2023-04-27T07:44:53.119Z,245.45
2023-04-27T07:45:53.178Z,243.59
2023-04-27T07:46:53.147Z,244.57
2023-04-27T07:47:53.158Z,245.49
2023-04-27T07:48:53.193Z,244.79
2023-04-27T07:49:53.207Z,249.27
2023-04-27T07:50:53.231Z,247.02
2023-04-27T07:51:53.242Z,245.18
2023-04-27T07:52:53.349Z,243.86
2023-04-27T07:53:53.334Z,242.86
2023-04-27T07:54:53.340Z,242.26
2023-04-27T07:55:53.381Z,239.87
2023-04-27T07:56:53.455Z,240.65
2023-04-27T07:57:53.448Z,241.00
2023-04-27T07:58:53.759Z,240.96
2023-04-27T07:59:53.588Z,240.20
2023-04-27T08:00:53.589Z,241.24
2023-04-27T08:01:59.199Z,240.81
2023-04-27T08:02:54.927Z,240.91
2023-04-27T08:03:53.887Z,240.84
2023-04-27T08:04:54.000Z,240.35
2023-04-27T08:05:54.157Z,237.21
2023-04-27T08:06:54.392Z,237.77
2023-04-27T08:07:54.348Z,238.57
2023-04-27T08:08:53.788Z,238.46
2023-04-27T08:09:53.664Z,235.95
2023-04-27T08:10:53.689Z,237.83
2023-04-27T08:11:53.691Z,236.35
2023-04-27T08:12:53.712Z,235.37
2023-04-27T08:13:53.717Z,236.34
2023-04-27T08:14:53.736Z,236.83
2023-04-27T08:15:54.297Z,235.25
2023-04-27T08:16:53.789Z,234.68
2023-04-27T08:17:53.791Z,233.79
2023-04-27T08:18:53.807Z,231.99
2023-04-27T08:19:53.819Z,232.71
2023-04-27T08:20:53.881Z,233.31
2023-04-27T08:21:53.917Z,232.64
2023-04-27T08:22:53.994Z,233.68
2023-04-27T08:23:54.055Z,232.48
2023-04-27T08:24:54.091Z,231.91
2023-04-27T08:25:54.159Z,231.74
2023-04-27T08:26:54.227Z,231.02
2023-04-27T08:27:54.252Z,229.60
2023-04-27T08:28:54.313Z,230.20
2023-04-27T08:29:54.375Z,231.42
2023-04-27T08:30:54.596Z,234.36
2023-04-27T08:31:56.653Z,232.04
2023-04-27T08:32:54.798Z,239.74
2023-04-27T08:33:54.806Z,232.14
2023-04-27T08:34:54.698Z,237.49
2023-04-27T08:35:54.757Z,236.33
2023-04-27T08:36:54.796Z,240.20
2023-04-27T08:37:54.848Z,239.61
2023-04-27T08:38:55.306Z,230.72
2023-04-27T08:39:54.942Z,219.41
2023-04-27T08:40:54.993Z,188.14
2023-04-27T08:41:55.081Z,153.56
2023-04-27T08:42:55.126Z,120.50
2023-04-27T08:43:55.652Z,78.48
2023-04-27T08:44:55.232Z,64.72
2023-04-27T08:45:55.339Z,52.93
2023-04-27T08:46:55.333Z,47.68
2023-04-27T08:47:55.331Z,25.61
2023-04-27T08:48:55.408Z,13.97
2023-04-27T08:49:55.446Z,32.61
2023-04-27T08:50:55.547Z,24.65
2023-04-27T08:51:55.594Z,34.47
2023-04-27T08:52:55.661Z,25.11
2023-04-27T08:53:55.723Z,36.76
2023-04-27T08:54:55.766Z,21.37
2023-04-27T08:55:56.779Z,30.45
2023-04-27T08:56:55.972Z,56.39
2023-04-27T08:57:56.015Z,75.35
2023-04-27T08:58:56.073Z,92.57
2023-04-27T08:59:56.072Z,114.62
2023-04-27T09:00:56.089Z,121.25
2023-04-27T09:01:56.132Z,131.40
2023-04-27T09:02:56.234Z,139.61
2023-04-27T09:03:56.556Z,145.31
2023-04-27T09:04:56.456Z,153.85
2023-04-27T09:06:03.432Z,160.05
2023-04-27T09:06:57.379Z,160.33
2023-04-27T09:07:56.298Z,161.76
2023-04-27T09:08:56.297Z,165.43
2023-04-27T09:09:56.323Z,173.28
2023-04-27T09:10:56.318Z,185.89
2023-04-27T09:11:56.350Z,191.66
2023-04-27T09:12:56.329Z,197.05
2023-04-27T09:13:56.308Z,201.46
2023-04-27T09:14:56.353Z,205.58
2023-04-27T09:15:56.319Z,210.07
2023-04-27T09:16:56.326Z,214.81
2023-04-27T09:17:56.470Z,219.88
2023-04-27T09:18:56.346Z,223.10
2023-04-27T09:19:56.327Z,225.99
2023-04-27T09:20:56.324Z,228.17
2023-04-27T09:21:56.328Z,230.89
2023-04-27T09:22:56.336Z,233.40
2023-04-27T09:23:56.347Z,236.70
2023-04-27T09:24:56.364Z,239.28
2023-04-27T09:25:56.333Z,242.74
2023-04-27T09:26:56.692Z,244.81
2023-04-27T09:27:56.398Z,249.46
2023-04-27T09:28:56.414Z,249.64
2023-04-27T09:29:56.386Z,249.01
2023-04-27T09:30:56.476Z,250.00
2023-04-27T09:31:56.549Z,250.00
2023-04-27T09:32:56.476Z,248.78
2023-04-27T09:33:56.486Z,248.88
2023-04-27T09:34:56.457Z,248.13
2023-04-27T09:35:56.418Z,249.31
2023-04-27T09:36:56.455Z,247.07
2023-04-27T09:37:56.415Z,250.00
2023-04-27T09:38:56.811Z,249.13
2023-04-27T09:39:56.409Z,249.96
2023-04-27T09:40:56.396Z,247.66
2023-04-27T09:41:56.426Z,250.00
2023-04-27T09:42:56.436Z,248.62
2023-04-27T09:43:57.906Z,247.84
2023-04-27T09:44:56.403Z,249.27
2023-04-27T09:45:56.412Z,249.43
2023-04-27T09:46:56.392Z,242.69
2023-04-27T09:47:56.468Z,206.73
2023-04-27T09:48:56.434Z,200.58
2023-04-27T09:49:56.409Z,192.68
2023-04-27T09:50:56.417Z,189.41
2023-04-27T09:51:56.464Z,189.01
2023-04-27T09:52:56.448Z,179.97
2023-04-27T09:53:56.517Z,167.39
2023-04-27T09:54:56.687Z,164.37
2023-04-27T09:55:56.553Z,157.08
2023-04-27T09:56:56.546Z,153.06
2023-04-27T09:57:56.576Z,147.09
2023-04-27T09:58:58.703Z,143.94
2023-04-27T09:59:56.656Z,144.31
2023-04-27T10:00:56.735Z,132.37
2023-04-27T10:01:56.745Z,131.61
2023-04-27T10:02:57.576Z,136.72
2023-04-27T10:03:56.876Z,133.59
2023-04-27T10:04:56.889Z,127.92
2023-04-27T10:05:56.854Z,126.21
2023-04-27T10:06:57.937Z,124.03
2023-04-27T10:07:56.878Z,131.78
2023-04-27T10:08:56.918Z,152.09
2023-04-27T10:09:56.953Z,157.89
2023-04-27T10:10:56.996Z,168.20
2023-04-27T10:11:57.026Z,172.51
2023-04-27T10:12:57.036Z,176.39
2023-04-27T10:13:57.048Z,176.28
2023-04-27T10:14:57.082Z,179.94
2023-04-27T10:15:57.100Z,183.68
2023-04-27T10:16:57.139Z,186.26
2023-04-27T10:17:57.169Z,187.20
2023-04-27T10:18:57.072Z,188.71
2023-04-27T10:19:58.202Z,189.95
2023-04-27T10:20:57.085Z,190.61
2023-04-27T10:21:57.106Z,192.29
2023-04-27T10:22:57.073Z,194.64
2023-04-27T10:23:57.125Z,193.99
2023-04-27T10:24:57.128Z,195.64
2023-04-27T10:25:57.109Z,196.64
2023-04-27T10:26:57.077Z,198.96
2023-04-27T10:27:57.080Z,197.72
2023-04-27T10:28:57.091Z,200.68
2023-04-27T10:29:57.124Z,202.25
2023-04-27T10:30:57.115Z,201.37
2023-04-27T10:31:57.082Z,203.47
2023-04-27T10:32:57.108Z,204.87
2023-04-27T10:33:57.149Z,206.22
2023-04-27T10:34:57.067Z,208.03
2023-04-27T10:35:57.098Z,210.67
2023-04-27T10:36:57.068Z,211.10
2023-04-27T10:37:57.074Z,212.61
2023-04-27T10:38:57.081Z,212.54
2023-04-27T10:39:57.377Z,215.46
2023-04-27T10:40:57.117Z,215.37
2023-04-27T10:41:57.102Z,216.16
2023-04-27T10:42:57.072Z,218.11
2023-04-27T10:43:57.121Z,217.73
2023-04-27T10:44:57.159Z,219.38
2023-04-27T10:45:57.159Z,218.56
2023-04-27T10:46:57.186Z,217.82
2023-04-27T10:47:57.219Z,218.86
2023-04-27T10:48:57.129Z,218.45
2023-04-27T10:49:57.133Z,218.04
2023-04-27T10:50:57.158Z,217.47
2023-04-27T10:51:57.148Z,217.30
2023-04-27T10:52:57.697Z,216.84
2023-04-27T10:53:57.194Z,214.45
2023-04-27T10:54:57.185Z,213.82
2023-04-27T10:55:57.161Z,214.68
2023-04-27T10:56:57.184Z,212.33
2023-04-27T10:57:57.250Z,211.78
2023-04-27T10:58:57.230Z,211.30
2023-04-27T10:59:57.251Z,210.10
2023-04-27T11:00:57.356Z,209.89
2023-04-27T11:01:57.320Z,209.05
2023-04-27T11:02:57.422Z,209.27
2023-04-27T11:03:57.359Z,207.68
2023-04-27T11:04:57.432Z,207.11
2023-04-27T11:05:58.111Z,206.56
2023-04-27T11:06:57.352Z,207.00
2023-04-27T11:07:57.374Z,205.63
2023-04-27T11:08:57.351Z,205.21
2023-04-27T11:09:57.394Z,204.15
2023-04-27T11:10:57.380Z,204.25
2023-04-27T11:11:57.419Z,202.90
2023-04-27T11:12:57.420Z,203.61
2023-04-27T11:13:57.414Z,202.20
2023-04-27T11:14:57.400Z,201.57
2023-04-27T11:15:57.546Z,201.04
2023-04-27T11:16:57.454Z,202.69
2023-04-27T11:17:57.484Z,201.14
2023-04-27T11:18:59.614Z,200.17
2023-04-27T11:19:57.471Z,199.52
2023-04-27T11:20:57.463Z,199.22
2023-04-27T11:21:57.444Z,200.01
2023-04-27T11:22:57.562Z,198.03
2023-04-27T11:23:57.470Z,198.42
2023-04-27T11:24:57.497Z,197.71
2023-04-27T11:25:57.524Z,197.77
2023-04-27T11:26:57.520Z,199.13
2023-04-27T11:27:57.553Z,197.14
2023-04-27T11:28:57.553Z,197.06
2023-04-27T11:29:57.870Z,197.49
2023-04-27T11:30:57.593Z,195.35
2023-04-27T11:31:57.735Z,193.82
2023-04-27T11:32:57.621Z,194.36
2023-04-27T11:33:57.633Z,193.83
2023-04-27T11:34:59.583Z,193.46
2023-04-27T11:35:57.641Z,193.10
2023-04-27T11:37:07.139Z,193.57
2023-04-27T11:37:58.676Z,193.61
2023-04-27T11:38:57.715Z,192.79
2023-04-27T11:39:57.709Z,191.96
2023-04-27T11:40:57.652Z,191.66
2023-04-27T11:41:57.688Z,191.40
2023-04-27T11:42:57.648Z,191.05
2023-04-27T11:43:57.629Z,190.53
2023-04-27T11:44:57.643Z,190.81
2023-04-27T11:45:57.626Z,189.48
2023-04-27T11:46:57.744Z,189.04
2023-04-27T11:47:57.677Z,189.92
2023-04-27T11:48:57.602Z,187.80
2023-04-27T11:49:57.623Z,187.48
2023-04-27T11:50:57.616Z,187.41
2023-04-27T11:51:57.635Z,188.10
2023-04-27T11:52:57.583Z,187.07
2023-04-27T11:53:57.564Z,186.69
2023-04-27T11:54:57.546Z,186.38
2023-04-27T11:55:57.551Z,185.03
2023-04-27T11:56:57.537Z,185.27
2023-04-27T11:57:57.536Z,186.29
2023-04-27T11:58:57.536Z,185.71
2023-04-27T11:59:57.540Z,184.96
2023-04-27T12:00:57.523Z,184.54
2023-04-27T12:01:57.549Z,182.10
2023-04-27T12:02:57.708Z,182.75
2023-04-27T12:04:00.036Z,181.70
2023-04-27T12:04:57.655Z,181.77
2023-04-27T12:06:04.153Z,181.79
2023-04-27T12:06:58.474Z,181.84
2023-04-27T12:07:57.475Z,181.88
2023-04-27T12:08:57.446Z,180.62
2023-04-27T12:09:59.501Z,180.80
2023-04-27T12:10:57.437Z,180.80
2023-04-27T12:11:57.432Z,178.42
2023-04-27T12:12:57.454Z,178.23
2023-04-27T12:13:57.434Z,177.43
2023-04-27T12:14:57.424Z,176.87
2023-04-27T12:15:59.022Z,175.07
2023-04-27T12:16:57.465Z,177.25
2023-04-27T12:17:57.436Z,175.34
2023-04-27T12:18:57.381Z,174.72
2023-04-27T12:19:57.385Z,173.30
2023-04-27T12:20:58.109Z,174.49
2023-04-27T12:21:57.349Z,174.36
2023-04-27T12:22:57.338Z,173.63
2023-04-27T12:23:57.343Z,173.12
2023-04-27T12:24:57.330Z,171.34
2023-04-27T12:25:57.300Z,172.39
2023-04-27T12:26:57.303Z,171.50
2023-04-27T12:27:57.303Z,170.45
2023-04-27T12:28:57.295Z,170.23
2023-04-27T12:29:57.275Z,168.66
2023-04-27T12:30:57.281Z,167.61
2023-04-27T12:31:57.256Z,167.11
2023-04-27T12:32:57.286Z,166.45